Time;durP1;ratioP1;P1;durP2;ratioP2;P2;SDS_P1;SDS_P2;PMS_P1;PMS_P2;Temp;Humidity;BMP_temperature;BMP_pressure;BME280_temperature;BME280_humidity;BME280_pressure;Samples;Min_cycle;Max_cycle;Signal;HPM_P1;HPM_P2
2020/12/15 00:00:43;;;;;;;3.83;2.30;;;;;;;7.47;97.10;100335.44;5023922;28;20315;-73
2020/12/15 00:03:14;;;;;;;2.90;2.50;;;;;;;7.44;97.38;100330.56;5016171;28;20176;-73
2020/12/15 00:05:39;;;;;;;2.87;2.57;;;;;;;7.45;97.89;100331.38;5015025;28;20252;-74
2020/12/15 00:08:05;;;;;;;4.50;2.47;;;;;;;7.50;97.89;100328.72;5015900;28;20183;-74
2020/12/15 00:10:30;;;;;;;2.87;2.33;;;;;;;7.48;97.69;100331.66;4998912;28;20230;-74
2020/12/15 00:12:56;;;;;;;2.47;2.27;;;;;;;7.46;97.71;100327.59;5032245;28;20176;-75
2020/12/15 00:15:22;;;;;;;3.07;2.30;;;;;;;7.49;97.70;100319.78;5031423;28;20286;-74
2020/12/15 00:17:52;;;;;;;4.10;2.20;;;;;;;7.41;97.62;100324.84;4999597;28;20191;-74
2020/12/15 00:20:20;;;;;;;3.20;2.30;;;;;;;7.41;97.82;100314.84;5015750;28;20744;-74
2020/12/15 00:22:50;;;;;;;2.60;2.40;;;;;;;7.41;97.48;100314.84;5016081;28;20183;-74
2020/12/15 00:25:16;;;;;;;3.77;2.80;;;;;;;7.39;97.59;100317.00;5030453;28;20262;-73
2020/12/15 00:27:46;;;;;;;3.57;2.63;;;;;;;7.34;97.62;100314.28;5007395;28;20164;-73
2020/12/15 00:30:12;;;;;;;2.73;2.40;;;;;;;7.23;97.90;100314.44;4991710;28;20626;-74
2020/12/15 00:32:38;;;;;;;2.70;2.50;;;;;;;7.27;97.61;100320.16;4998839;28;20195;-74
2020/12/15 00:35:05;;;;;;;2.77;2.40;;;;;;;7.12;97.90;100323.53;5014303;28;20173;-74
2020/12/15 00:37:37;;;;;;;3.00;2.63;;;;;;;7.14;97.93;100312.50;5032073;28;20176;-74
2020/12/15 00:40:03;;;;;;;3.63;2.67;;;;;;;7.20;97.94;100312.28;4999349;28;20201;-74
2020/12/15 00:42:29;;;;;;;2.60;2.40;;;;;;;7.27;97.68;100306.66;4997952;28;20673;-74
2020/12/15 00:44:54;;;;;;;3.57;2.40;;;;;;;7.26;97.71;100299.63;4998546;28;20212;-74
2020/12/15 00:47:20;;;;;;;2.97;2.30;;;;;;;7.17;97.64;100302.00;4998238;28;20273;-75
2020/12/15 00:49:49;;;;;;;2.57;2.37;;;;;;;7.21;98.17;100302.28;4998635;28;20209;-73
2020/12/15 00:52:14;;;;;;;3.10;2.47;;;;;;;7.23;97.89;100300.16;5014992;28;20717;-74
2020/12/15 00:54:40;;;;;;;2.80;2.50;;;;;;;7.19;98.16;100288.25;5014790;28;20193;-74
2020/12/15 00:57:08;;;;;;;3.17;2.47;;;;;;;7.27;98.28;100296.69;5006180;28;20213;-73
2020/12/15 00:59:36;;;;;;;2.63;2.37;;;;;;;7.35;97.59;100282.69;4996185;28;20279;-74
2020/12/15 01:02:05;;;;;;;3.00;2.50;;;;;;;7.33;97.38;100284.84;4990602;28;20221;-74
2020/12/15 01:04:34;;;;;;;2.80;2.50;;;;;;;7.33;97.43;100282.94;4995265;28;20662;-74
2020/12/15 01:07:04;;;;;;;3.07;2.60;;;;;;;7.30;97.88;100275.34;4981427;28;20357;-74
2020/12/15 01:09:30;;;;;;;2.77;2.57;;;;;;;7.31;97.50;100270.78;4998961;28;20213;-74
2020/12/15 01:11:56;;;;;;;3.30;2.40;;;;;;;7.30;97.27;100267.25;4965708;28;20233;-74
2020/12/15 01:14:24;;;;;;;2.87;2.40;;;;;;;7.40;96.90;100277.31;4983415;28;20184;-74
2020/12/15 01:16:52;;;;;;;4.07;2.27;;;;;;;7.38;96.93;100269.47;4964835;28;20232;-74
2020/12/15 01:19:19;;;;;;;3.10;2.50;;;;;;;7.30;97.15;100269.13;4995217;28;20259;-74
2020/12/15 01:21:47;;;;;;;3.07;2.27;;;;;;;7.35;97.01;100261.06;4979551;28;20221;-74
2020/12/15 01:24:21;;;;;;;2.70;2.50;;;;;;;7.43;96.46;100253.28;4966685;28;20180;-74
2020/12/15 01:27:07;;;;;;;3.20;2.30;;;;;;;7.34;96.70;100252.16;4992054;28;20311;-74
2020/12/15 01:29:42;;;;;;;2.80;2.40;;;;;;;7.35;96.88;100248.38;4996147;28;20208;-74
2020/12/15 01:32:10;;;;;;;3.20;2.10;;;;;;;7.39;97.11;100251.38;4991774;28;20733;-76
2020/12/15 01:34:36;;;;;;;2.30;2.17;;;;;;;7.41;97.08;100244.63;5010710;28;20185;-74
2020/12/15 01:37:05;;;;;;;2.90;2.33;;;;;;;7.40;97.28;100237.59;5010096;28;20217;-74
2020/12/15 01:43:20;;;;;;;2.73;2.30;;;;;;;7.52;96.60;100221.97;5011690;28;20304;-74
2020/12/15 01:45:51;;;;;;;2.80;2.40;;;;;;;7.49;96.35;100217.13;5009310;28;20795;-75
2020/12/15 01:48:19;;;;;;;3.60;2.57;;;;;;;7.66;95.50;100214.22;4994864;28;20185;-73
2020/12/15 01:50:52;;;;;;;2.87;2.40;;;;;;;7.68;95.36;100212.88;4979278;28;20219;-75
2020/12/15 01:53:20;;;;;;;2.20;1.93;;;;;;;7.51;94.79;100212.28;4994526;28;20189;-74
2020/12/15 01:55:49;;;;;;;2.63;2.30;;;;;;;7.43;94.68;100212.75;4983109;28;20216;-74
2020/12/15 01:58:20;;;;;;;2.40;2.00;;;;;;;7.47;94.95;100213.88;4999905;28;20189;-75
2020/12/15 02:01:04;;;;;;;3.23;2.73;;;;;;;7.61;94.96;100198.78;5003143;28;20362;-73
2020/12/15 02:03:31;;;;;;;4.33;2.23;;;;;;;7.43;96.69;100207.34;4994560;28;20263;-74
2020/12/15 02:06:14;;;;;;;2.43;2.20;;;;;;;7.38;97.20;100206.50;4982292;28;20312;-74
2020/12/15 02:08:57;;;;;;;3.20;2.80;;;;;;;7.27;98.18;100209.41;4981978;28;20177;-75
2020/12/15 02:11:27;;;;;;;3.17;2.60;;;;;;;7.26;98.36;100203.22;4977887;28;20283;-74
2020/12/15 02:13:54;;;;;;;2.80;2.50;;;;;;;7.19;99.31;100208.03;4978669;28;20211;-75
2020/12/15 02:16:21;;;;;;;3.20;2.90;;;;;;;7.29;99.31;100191.91;4976197;28;20698;-73
2020/12/15 02:18:55;;;;;;;2.93;2.60;;;;;;;7.14;99.95;100186.41;4979853;28;20185;-74
2020/12/15 02:21:25;;;;;;;2.83;2.63;;;;;;;7.28;99.86;100186.75;4993954;28;20224;-74
2020/12/15 02:23:57;;;;;;;3.03;2.70;;;;;;;7.26;99.69;100180.81;4979698;28;20185;-74
2020/12/15 02:26:31;;;;;;;2.90;2.70;;;;;;;7.44;98.21;100183.88;4985620;28;20219;-74
2020/12/15 02:28:57;;;;;;;3.10;2.80;;;;;;;7.11;99.95;100172.63;5003055;28;20227;-74
2020/12/15 02:31:23;;;;;;;3.10;2.73;;;;;;;7.24;100.00;100174.84;5001555;28;20220;-74
2020/12/15 02:33:51;;;;;;;3.57;2.70;;;;;;;7.36;99.88;100182.47;5010410;28;20219;-75
2020/12/15 02:36:19;;;;;;;3.20;2.90;;;;;;;7.28;100.00;100184.84;4978057;28;20706;-74
2020/12/15 02:39:14;;;;;;;2.80;2.57;;;;;;;7.33;100.00;100188.41;4998845;28;20218;-74
2020/12/15 02:41:52;;;;;;;4.00;2.80;;;;;;;7.27;99.97;100187.81;4997840;28;20274;-74
2020/12/15 02:44:18;;;;;;;3.23;2.90;;;;;;;7.35;99.25;100186.25;4979195;28;20197;-75
2020/12/15 02:46:49;;;;;;;3.10;2.63;;;;;;;7.34;98.42;100190.03;4993909;28;20607;-74
2020/12/15 02:49:17;;;;;;;2.73;2.53;;;;;;;7.35;98.88;100191.66;4977898;28;20209;-74
2020/12/15 02:51:49;;;;;;;3.23;2.93;;;;;;;7.50;97.56;100197.13;4976546;28;20232;-74
2020/12/15 02:54:26;;;;;;;3.20;2.87;;;;;;;7.45;97.30;100197.09;4979413;28;20270;-76
2020/12/15 02:56:54;;;;;;;3.73;2.77;;;;;;;7.38;98.20;100193.84;4980211;28;20220;-74
2020/12/15 02:59:20;;;;;;;3.13;2.87;;;;;;;7.50;97.97;100199.81;4981719;28;20235;-73
2020/12/15 03:01:48;;;;;;;3.80;2.73;;;;;;;7.45;98.15;100207.88;4998153;28;20225;-73
2020/12/15 03:04:19;;;;;;;3.33;3.03;;;;;;;7.50;98.46;100207.13;4978059;28;20192;-73
2020/12/15 03:06:51;;;;;;;3.77;3.07;;;;;;;7.45;98.46;100207.88;4977529;28;20247;-74
2020/12/15 03:09:28;;;;;;;3.30;3.00;;;;;;;7.59;97.98;100202.84;4994894;28;20262;-74
2020/12/15 03:11:59;;;;;;;3.40;2.97;;;;;;;7.52;97.52;100208.47;4993040;28;20816;-74
2020/12/15 03:14:33;;;;;;;3.47;3.07;;;;;;;7.56;97.99;100198.75;4978215;28;20185;-74
2020/12/15 03:17:05;;;;;;;4.20;3.33;;;;;;;7.65;95.33;100191.78;4977252;28;20217;-73
2020/12/15 03:19:31;;;;;;;3.40;3.10;;;;;;;7.67;95.66;100189.63;4977388;28;20235;-74
2020/12/15 03:21:59;;;;;;;4.10;3.40;;;;;;;7.59;96.70;100192.84;4993074;28;20260;-74
2020/12/15 03:24:26;;;;;;;3.77;3.47;;;;;;;7.62;96.84;100189.63;4977966;28;20188;-73
2020/12/15 03:26:55;;;;;;;3.70;3.40;;;;;;;7.60;96.48;100190.94;4986915;28;20212;-74
2020/12/15 03:29:24;;;;;;;3.63;3.33;;;;;;;7.67;96.52;100192.31;4988161;28;20294;-73
2020/12/15 03:31:51;;;;;;;3.60;3.23;;;;;;;7.72;96.06;100203.97;5001365;28;20216;-74
2020/12/15 03:34:24;;;;;;;3.70;3.40;;;;;;;7.71;96.01;100201.56;4997903;28;20180;-73
2020/12/15 03:36:50;;;;;;;4.80;3.53;;;;;;;7.71;96.12;100204.25;4980047;28;20225;-74
2020/12/15 03:39:17;;;;;;;3.90;3.50;;;;;;;7.76;95.01;100209.66;4981047;28;20231;-73
2020/12/15 03:41:45;;;;;;;3.87;3.47;;;;;;;7.84;94.33;100201.84;4981019;28;20251;-73
2020/12/15 03:44:18;;;;;;;3.73;3.43;;;;;;;7.94;94.34;100206.47;4982258;28;20269;-74
2020/12/15 03:47:09;;;;;;;3.80;3.40;;;;;;;7.99;93.87;100210.00;5002418;28;20220;-74
2020/12/15 03:49:35;;;;;;;3.50;3.20;;;;;;;7.70;95.36;100210.72;4984101;28;20204;-74
2020/12/15 03:52:04;;;;;;;4.00;3.50;;;;;;;7.65;96.72;100207.19;5016284;28;20299;-73
2020/12/15 03:54:30;;;;;;;3.70;3.40;;;;;;;7.75;96.99;100214.25;5000016;28;20655;-75
2020/12/15 03:57:21;;;;;;;3.90;3.60;;;;;;;7.72;96.64;100214.78;5013371;28;20225;-75
2020/12/15 04:00:09;;;;;;;3.93;3.60;;;;;;;7.66;97.70;100210.44;4976859;28;20339;-74
2020/12/15 04:02:39;;;;;;;3.60;3.30;;;;;;;7.64;98.36;100222.59;5034012;28;20243;-74
2020/12/15 04:05:11;;;;;;;3.63;3.33;;;;;;;7.70;98.09;100221.53;5002226;28;20254;-74
2020/12/15 04:07:40;;;;;;;4.40;4.00;;;;;;;7.75;98.61;100218.84;5004412;28;20184;-74
2020/12/15 04:10:08;;;;;;;4.40;4.00;;;;;;;7.62;99.23;100219.34;5000519;28;20628;-73
2020/12/15 04:12:38;;;;;;;4.87;3.80;;;;;;;7.67;98.79;100222.03;4990098;28;20228;-73
2020/12/15 04:15:06;;;;;;;4.83;4.33;;;;;;;7.74;98.95;100217.22;4992252;28;20673;-73
2020/12/15 04:17:36;;;;;;;4.47;4.07;;;;;;;7.67;99.34;100224.75;4996920;28;20171;-73
2020/12/15 04:20:06;;;;;;;4.60;4.07;;;;;;;7.52;99.89;100224.69;5017285;28;20242;-75
2020/12/15 04:22:34;;;;;;;4.93;4.30;;;;;;;7.58;99.88;100226.34;5031204;28;20212;-75
2020/12/15 04:25:05;;;;;;;4.70;4.30;;;;;;;7.63;99.89;100225.56;5022538;28;20255;-74
2020/12/15 04:27:40;;;;;;;4.87;4.37;;;;;;;7.58;100.00;100234.47;5013961;28;20189;-73
2020/12/15 04:30:06;;;;;;;5.73;4.30;;;;;;;7.67;99.81;100230.16;4997550;28;20201;-74
2020/12/15 04:32:34;;;;;;;4.90;4.40;;;;;;;7.61;100.00;100228.50;5015766;28;20216;-74
2020/12/15 04:35:10;;;;;;;5.97;4.30;;;;;;;7.57;100.00;100224.72;5001692;28;20662;-74
2020/12/15 04:37:38;;;;;;;4.67;4.27;;;;;;;7.54;100.00;100222.53;5015349;28;20223;-74
2020/12/15 04:40:09;;;;;;;4.87;4.47;;;;;;;7.52;100.00;100224.69;4998735;28;20287;-74
2020/12/15 04:42:40;;;;;;;4.70;4.30;;;;;;;7.37;100.00;100216.50;5021265;28;20176;-73
2020/12/15 04:45:11;;;;;;;5.27;4.57;;;;;;;7.45;100.00;100228.69;4992382;28;20723;-74
2020/12/15 04:47:46;;;;;;;4.63;4.23;;;;;;;7.49;100.00;100233.34;5016127;28;20191;-73
2020/12/15 04:50:18;;;;;;;4.93;4.43;;;;;;;7.42;100.00;100224.66;4997161;28;20217;-73
2020/12/15 04:53:07;;;;;;;5.00;4.50;;;;;;;7.45;100.00;100218.69;5009621;28;20212;-73
2020/12/15 04:55:51;;;;;;;4.80;4.40;;;;;;;7.51;100.00;100209.56;4998835;28;20661;-73
2020/12/15 04:58:23;;;;;;;5.17;4.67;;;;;;;7.58;100.00;100212.84;4999801;28;20181;-73
2020/12/15 05:00:51;;;;;;;6.23;4.63;;;;;;;7.47;100.00;100211.16;4989151;28;20225;-73
2020/12/15 05:03:34;;;;;;;5.10;4.63;;;;;;;7.58;100.00;100214.72;4996601;28;20657;-74
2020/12/15 05:06:07;;;;;;;4.87;4.47;;;;;;;7.71;100.00;100217.78;5009546;28;20250;-74
2020/12/15 05:08:35;;;;;;;4.57;4.17;;;;;;;7.57;100.00;100215.81;4995521;28;20177;-74
2020/12/15 05:11:05;;;;;;;5.40;4.60;;;;;;;7.60;100.00;100221.50;4979099;28;20605;-73
2020/12/15 05:13:57;;;;;;;6.90;5.00;;;;;;;7.66;100.00;100226.66;4985604;28;20192;-73
2020/12/15 05:16:25;;;;;;;5.67;4.30;;;;;;;7.66;100.00;100215.03;5026961;28;20221;-75
2020/12/15 05:19:04;;;;;;;5.13;4.73;;;;;;;7.76;100.00;100217.75;5011860;28;20211;-74
2020/12/15 05:21:54;;;;;;;4.80;4.40;;;;;;;7.78;100.00;100223.72;5010802;28;20224;-74
2020/12/15 05:24:26;;;;;;;5.30;4.80;;;;;;;7.71;100.00;100215.06;4979867;28;20185;-74
2020/12/15 05:26:57;;;;;;;4.93;4.53;;;;;;;7.78;100.00;100221.00;5014386;28;20208;-73
2020/12/15 05:29:23;;;;;;;5.03;4.63;;;;;;;7.97;100.00;100223.00;4994573;28;20295;-73
2020/12/15 05:32:16;;;;;;;5.40;4.90;;;;;;;7.63;100.00;100218.25;5013375;28;20693;-73
2020/12/15 05:35:10;;;;;;;5.57;4.93;;;;;;;7.68;100.00;100223.69;4989035;28;20192;-73
2020/12/15 05:38:01;;;;;;;5.20;4.80;;;;;;;7.61;100.00;100223.09;5018622;28;20915;-73
2020/12/15 05:40:45;;;;;;;5.30;4.83;;;;;;;7.76;100.00;100215.88;5016707;28;20715;-73
2020/12/15 05:43:33;;;;;;;6.30;5.13;;;;;;;7.71;100.00;100223.97;5003067;28;20205;-74
2020/12/15 05:46:01;;;;;;;5.67;5.17;;;;;;;7.68;100.00;100224.50;5013591;28;20282;-74
2020/12/15 05:48:28;;;;;;;5.73;5.23;;;;;;;7.87;100.00;100216.72;4997293;28;20723;-74
2020/12/15 05:50:57;;;;;;;5.47;4.97;;;;;;;7.71;100.00;100223.16;5013808;28;20223;-74
2020/12/15 05:53:23;;;;;;;5.47;4.97;;;;;;;7.77;100.00;100216.69;5030373;28;20180;-74
2020/12/15 05:55:51;;;;;;;5.70;5.10;;;;;;;7.92;100.00;100209.44;4992885;28;20225;-74
2020/12/15 05:58:16;;;;;;;5.97;5.37;;;;;;;7.91;100.00;100196.19;5010517;28;20659;-73
2020/12/15 06:00:42;;;;;;;5.40;4.90;;;;;;;7.81;100.00;100205.09;4988143;28;20220;-73
2020/12/15 06:03:11;;;;;;;6.00;5.50;;;;;;;7.80;100.00;100210.75;4979251;28;20173;-74
2020/12/15 06:05:40;;;;;;;5.77;5.27;;;;;;;7.74;100.00;100201.00;4977404;28;20228;-75
2020/12/15 06:08:08;;;;;;;6.20;5.60;;;;;;;7.72;100.00;100201.25;4994194;28;20188;-75
2020/12/15 06:10:37;;;;;;;5.47;5.03;;;;;;;7.77;100.00;100205.88;4980032;28;20705;-74
2020/12/15 06:13:03;;;;;;;6.57;5.70;;;;;;;7.72;100.00;100208.56;5018818;28;20218;-74
2020/12/15 06:15:29;;;;;;;5.70;5.13;;;;;;;7.91;100.00;100202.44;5008560;28;20224;-74
2020/12/15 06:18:01;;;;;;;6.77;6.03;;;;;;;7.69;100.00;100203.69;4997421;28;20627;-74
2020/12/15 06:20:34;;;;;;;5.83;5.33;;;;;;;7.71;100.00;100198.84;4988471;28;20762;-75
2020/12/15 06:23:02;;;;;;;6.40;5.80;;;;;;;7.63;100.00;100199.34;4978494;28;20184;-74
2020/12/15 06:25:33;;;;;;;7.30;5.40;;;;;;;7.63;100.00;100201.22;4978924;28;20247;-74
2020/12/15 06:28:09;;;;;;;6.73;6.13;;;;;;;7.70;100.00;100208.03;4996467;28;20212;-75
2020/12/15 06:30:37;;;;;;;6.70;6.07;;;;;;;7.71;100.00;100204.25;4985302;28;20244;-74
2020/12/15 06:33:04;;;;;;;7.47;6.03;;;;;;;7.79;100.00;100198.31;4977945;28;20177;-74
2020/12/15 06:35:30;;;;;;;6.53;5.90;;;;;;;7.75;100.00;100205.34;4992695;28;20290;-74
2020/12/15 06:37:55;;;;;;;6.40;5.80;;;;;;;7.71;100.00;100202.34;4977819;28;20661;-74
2020/12/15 06:40:21;;;;;;;7.13;6.20;;;;;;;7.83;100.00;100194.81;4993157;28;20720;-74
2020/12/15 06:42:51;;;;;;;7.30;6.60;;;;;;;7.77;100.00;100193.19;4977496;28;20557;-73
2020/12/15 06:45:24;;;;;;;6.93;6.23;;;;;;;7.82;100.00;100189.66;4976931;28;20299;-74
2020/12/15 06:47:59;;;;;;;6.90;6.20;;;;;;;7.81;100.00;100185.34;4978437;28;20185;-74
2020/12/15 06:50:25;;;;;;;7.50;6.63;;;;;;;7.92;100.00;100203.22;4993167;28;20204;-73
2020/12/15 06:52:51;;;;;;;9.13;7.53;;;;;;;7.82;100.00;100214.00;4978373;28;20260;-73
2020/12/15 06:55:29;;;;;;;7.37;6.67;;;;;;;7.59;100.00;100214.44;4993872;28;20243;-73
2020/12/15 06:58:00;;;;;;;7.73;6.60;;;;;;;7.76;100.00;100220.47;4997172;28;20181;-73
2020/12/15 07:00:39;;;;;;;7.67;6.50;;;;;;;7.84;100.00;100222.69;5004386;28;20229;-73
2020/12/15 07:03:09;;;;;;;7.97;6.93;;;;;;;7.77;100.00;100227.50;4990317;28;20678;-75
2020/12/15 07:05:38;;;;;;;18.33;16.43;;;;;;;7.77;100.00;100230.22;4995178;28;20243;-74
2020/12/15 07:08:08;;;;;;;8.33;6.97;;;;;;;7.90;100.00;100232.44;4977391;28;20189;-73
2020/12/15 07:10:34;;;;;;;7.23;6.53;;;;;;;7.85;100.00;100235.09;4992027;28;20236;-73
2020/12/15 07:13:04;;;;;;;7.20;6.50;;;;;;;7.86;100.00;100228.63;4976577;28;20185;-74
2020/12/15 07:15:32;;;;;;;7.60;6.87;;;;;;;7.92;100.00;100232.97;4980072;28;20239;-74
2020/12/15 07:17:58;;;;;;;7.03;6.27;;;;;;;7.93;100.00;100238.13;5008916;28;20620;-74
2020/12/15 07:20:24;;;;;;;7.63;6.70;;;;;;;7.91;100.00;100236.75;4980765;28;20284;-74
2020/12/15 07:22:53;;;;;;;7.03;6.33;;;;;;;7.99;100.00;100242.47;4995731;28;20178;-74
2020/12/15 07:25:18;;;;;;;7.30;6.60;;;;;;;8.03;100.00;100238.94;5009120;28;20209;-74
2020/12/15 07:27:47;;;;;;;7.23;6.53;;;;;;;8.10;100.00;100234.13;5004893;28;20191;-74
2020/12/15 07:30:20;;;;;;;6.97;6.27;;;;;;;8.08;100.00;100249.78;4988297;28;20228;-73
2020/12/15 07:32:48;;;;;;;7.37;6.20;;;;;;;8.11;100.00;100243.88;4996758;28;20615;-74
2020/12/15 07:35:19;;;;;;;6.90;6.17;;;;;;;8.04;100.00;100251.41;4995716;28;20180;-75
2020/12/15 07:37:48;;;;;;;7.20;6.50;;;;;;;8.10;100.00;100244.97;4997303;28;20187;-74
2020/12/15 07:40:19;;;;;;;8.57;6.87;;;;;;;8.14;100.00;100250.66;5011176;28;20336;-73
2020/12/15 07:43:03;;;;;;;6.80;6.10;;;;;;;8.07;100.00;100248.16;4994001;28;20216;-73
2020/12/15 07:45:30;;;;;;;7.40;6.70;;;;;;;8.02;100.00;100241.91;4976962;28;20240;-74
2020/12/15 07:47:58;;;;;;;7.63;6.17;;;;;;;7.88;100.00;100250.81;4993245;28;20583;-73
2020/12/15 07:50:27;;;;;;;7.77;6.23;;;;;;;7.93;100.00;100248.94;4975899;28;20209;-74
2020/12/15 07:52:54;;;;;;;7.13;6.43;;;;;;;7.90;100.00;100252.16;4976709;28;20177;-74
2020/12/15 07:55:21;;;;;;;7.00;6.30;;;;;;;7.95;100.00;100251.34;4977300;28;20220;-73
2020/12/15 07:57:47;;;;;;;6.70;6.10;;;;;;;7.90;100.00;100254.88;4994430;28;20188;-73
2020/12/15 08:00:19;;;;;;;6.67;6.07;;;;;;;7.93;100.00;100253.50;4994056;28;20200;-73
2020/12/15 08:02:45;;;;;;;7.00;6.30;;;;;;;8.01;100.00;100261.13;4997323;28;20196;-73
2020/12/15 08:05:19;;;;;;;6.97;6.27;;;;;;;7.87;100.00;100266.19;5011281;28;20214;-73
2020/12/15 08:07:49;;;;;;;7.40;6.10;;;;;;;7.96;100.00;100264.59;4997657;28;20184;-74
2020/12/15 08:10:25;;;;;;;6.73;6.03;;;;;;;8.04;100.00;100270.34;5013180;28;20243;-72
2020/12/15 08:12:55;;;;;;;7.10;6.40;;;;;;;7.98;100.00;100278.69;5033302;28;20649;-74
2020/12/15 08:15:21;;;;;;;7.53;6.40;;;;;;;8.03;100.00;100275.19;5000037;28;20176;-73
2020/12/15 08:17:48;;;;;;;7.83;6.40;;;;;;;8.02;100.00;100278.97;5001321;28;20234;-74
2020/12/15 08:20:15;;;;;;;7.20;6.27;;;;;;;8.06;100.00;100280.91;5004594;28;20212;-74
2020/12/15 08:22:42;;;;;;;7.83;6.80;;;;;;;8.00;100.00;100281.13;5040342;28;20180;-74
2020/12/15 08:25:13;;;;;;;7.40;6.43;;;;;;;8.08;100.00;100278.72;5020344;28;20213;-73
2020/12/15 08:27:42;;;;;;;8.53;6.40;;;;;;;8.16;100.00;100276.34;5012087;28;20177;-73
2020/12/15 08:30:17;;;;;;;6.70;6.00;;;;;;;8.23;100.00;100274.19;5000439;28;20243;-74
2020/12/15 08:32:50;;;;;;;6.67;6.07;;;;;;;8.30;100.00;100272.06;4968343;28;20180;-74
2020/12/15 08:35:25;;;;;;;8.03;6.20;;;;;;;8.37;100.00;100269.94;4989504;28;20653;-74
2020/12/15 08:37:56;;;;;;;8.07;6.33;;;;;;;8.42;100.00;100274.53;5030508;28;20206;-75
2020/12/15 08:40:22;;;;;;;6.63;6.03;;;;;;;8.45;100.00;100269.38;5008632;28;20203;-74
2020/12/15 08:42:48;;;;;;;8.10;5.87;;;;;;;8.43;100.00;100266.16;4994608;28;20177;-74
2020/12/15 08:45:16;;;;;;;6.93;6.20;;;;;;;8.51;100.00;100273.72;5002415;28;20223;-74
2020/12/15 08:47:45;;;;;;;7.87;6.80;;;;;;;8.58;100.00;100268.88;4983999;28;20192;-73
2020/12/15 08:50:15;;;;;;;6.97;6.37;;;;;;;8.54;100.00;100262.38;5001803;28;20212;-73
2020/12/15 08:52:41;;;;;;;6.73;6.13;;;;;;;8.55;100.00;100258.56;5010629;28;20181;-73
2020/12/15 08:55:09;;;;;;;6.60;5.90;;;;;;;8.54;100.00;100260.47;4993732;28;20584;-74
2020/12/15 08:57:34;;;;;;;6.93;6.27;;;;;;;8.63;100.00;100271.59;4993219;28;20189;-73
2020/12/15 09:00:33;;;;;;;6.80;5.90;;;;;;;8.68;100.00;100268.88;4991048;28;20673;-73
2020/12/15 09:03:20;;;;;;;6.60;5.97;;;;;;;8.42;100.00;100275.31;5003233;28;20261;-75
2020/12/15 09:05:52;;;;;;;6.90;6.30;;;;;;;8.53;100.00;100276.97;4993436;28;20236;-73
2020/12/15 09:08:19;;;;;;;6.97;6.27;;;;;;;8.45;100.00;100291.03;5010624;28;20196;-73
2020/12/15 09:10:45;;;;;;;7.60;6.77;;;;;;;8.43;100.00;100290.50;4993769;28;20217;-74
2020/12/15 09:13:10;;;;;;;7.33;6.50;;;;;;;8.44;100.00;100294.81;4977198;28;20724;-73
2020/12/15 09:15:52;;;;;;;6.93;6.20;;;;;;;8.60;100.00;100299.19;5004017;28;20235;-73
2020/12/15 09:18:35;;;;;;;6.87;6.27;;;;;;;8.46;100.00;100307.00;4975398;28;20184;-73
2020/12/15 09:21:13;;;;;;;7.13;6.43;;;;;;;8.68;100.00;100301.34;4982954;28;20654;-73
2020/12/15 09:23:42;;;;;;;7.13;6.07;;;;;;;8.73;100.00;100293.25;5015168;28;20181;-73
2020/12/15 09:26:10;;;;;;;6.83;6.13;;;;;;;8.94;100.00;100293.00;5024755;28;20631;-74
2020/12/15 09:28:38;;;;;;;6.70;6.00;;;;;;;8.95;100.00;100286.50;5014195;28;20699;-74
2020/12/15 09:31:03;;;;;;;7.23;6.53;;;;;;;8.86;100.00;100298.94;5013427;28;20244;-73
2020/12/15 09:33:31;;;;;;;6.37;5.73;;;;;;;9.06;100.00;100296.25;5014753;28;20259;-73
2020/12/15 09:35:59;;;;;;;6.80;6.00;;;;;;;9.14;100.00;100291.13;5013899;28;20227;-73
2020/12/15 09:38:25;;;;;;;6.30;5.70;;;;;;;9.33;100.00;100284.84;5000037;28;20596;-73
2020/12/15 09:40:53;;;;;;;7.90;6.17;;;;;;;9.13;100.00;100300.31;5032895;28;20228;-71
2020/12/15 09:43:18;;;;;;;6.53;5.93;;;;;;;9.38;100.00;100308.44;5016287;28;20193;-72
2020/12/15 09:45:44;;;;;;;6.13;5.53;;;;;;;9.61;100.00;100304.06;5014845;28;20248;-71
2020/12/15 09:48:10;;;;;;;10.37;6.67;;;;;;;9.84;99.40;100294.50;5005806;28;20212;-73
2020/12/15 09:50:38;;;;;;;6.93;5.40;;;;;;;10.04;97.89;100289.84;4995340;28;20231;-74
2020/12/15 09:53:04;;;;;;;7.53;5.80;;;;;;;9.81;97.78;100292.34;5023916;28;20173;-73
2020/12/15 09:55:29;;;;;;;6.20;5.60;;;;;;;9.64;97.94;100300.78;5003904;28;20593;-72
2020/12/15 09:57:58;;;;;;;5.70;5.20;;;;;;;9.85;97.97;100294.19;5000512;28;20255;-72
2020/12/15 10:00:23;;;;;;;6.20;5.60;;;;;;;9.88;97.77;100280.09;5012758;28;20230;-73
2020/12/15 10:02:49;;;;;;;5.60;4.77;;;;;;;9.91;96.91;100285.00;5031439;28;20709;-72
2020/12/15 10:05:15;;;;;;;5.67;5.07;;;;;;;10.09;96.36;100295.22;5010893;28;20296;-73
2020/12/15 10:07:40;;;;;;;6.00;5.40;;;;;;;9.98;95.66;100290.94;5009756;28;20195;-73
2020/12/15 10:10:06;;;;;;;12.30;10.90;;;;;;;9.89;96.15;100284.44;5028953;28;20557;-72
2020/12/15 10:12:32;;;;;;;6.07;5.50;;;;;;;10.08;95.86;100289.00;5011678;28;20184;-73
2020/12/15 10:15:00;;;;;;;6.00;5.37;;;;;;;9.93;95.55;100285.56;5020598;28;20767;-72
2020/12/15 10:17:27;;;;;;;5.37;4.87;;;;;;;9.95;95.21;100288.00;4999097;28;20913;-73
2020/12/15 10:19:56;;;;;;;5.77;5.07;;;;;;;10.00;95.62;100283.34;4987211;28;20200;-72
2020/12/15 10:22:21;;;;;;;6.53;4.67;;;;;;;10.11;95.15;100271.38;5018482;28;20217;-72
2020/12/15 10:24:47;;;;;;;5.60;5.00;;;;;;;10.15;94.73;100278.66;5010052;28;20247;-72
2020/12/15 10:27:13;;;;;;;5.67;5.17;;;;;;;10.08;95.07;100282.78;4999736;28;20217;-73
2020/12/15 10:29:38;;;;;;;6.83;5.30;;;;;;;9.81;95.74;100286.91;4982010;28;20224;-73
2020/12/15 10:32:04;;;;;;;5.90;4.97;;;;;;;9.74;96.28;100298.06;4974935;28;20315;-73
2020/12/15 10:34:32;;;;;;;5.57;5.07;;;;;;;9.87;96.45;100286.63;5021285;28;20219;-73
2020/12/15 10:36:58;;;;;;;5.30;4.80;;;;;;;9.95;95.84;100293.41;5021017;28;20312;-73
2020/12/15 10:39:24;;;;;;;5.63;5.10;;;;;;;9.98;96.05;100289.06;5012983;28;20204;-73
2020/12/15 10:41:52;;;;;;;5.33;4.80;;;;;;;10.19;95.13;100295.22;5028433;28;20224;-71
2020/12/15 10:44:20;;;;;;;5.83;5.10;;;;;;;10.33;94.69;100293.50;4994625;28;20562;-74
2020/12/15 10:46:46;;;;;;;5.83;5.33;;;;;;;10.35;94.52;100284.00;5002428;28;20231;-72
2020/12/15 10:49:14;;;;;;;5.80;5.30;;;;;;;10.36;94.80;100282.09;5014996;28;20215;-72
2020/12/15 10:51:43;;;;;;;5.30;4.80;;;;;;;10.36;94.76;100282.88;5013583;28;20239;-74
2020/12/15 10:54:11;;;;;;;5.27;4.77;;;;;;;10.41;94.02;100272.81;4980038;28;20662;-73
2020/12/15 10:56:39;;;;;;;5.70;5.10;;;;;;;10.46;94.24;100278.22;4999985;28;20220;-73
2020/12/15 10:59:07;;;;;;;5.33;4.83;;;;;;;10.52;94.26;100279.81;4974454;28;20181;-72
2020/12/15 11:01:33;;;;;;;6.20;5.57;;;;;;;10.32;94.27;100291.88;5018509;28;20285;-73
2020/12/15 11:04:01;;;;;;;24.53;19.63;;;;;;;10.42;93.76;100293.47;4969409;28;20184;-75
2020/12/15 11:06:31;;;;;;;7.87;7.17;;;;;;;10.37;94.64;100294.59;4993798;28;20228;-74
2020/12/15 11:08:59;;;;;;;41.23;34.27;;;;;;;10.31;93.54;100298.41;5012271;28;20315;-74
2020/12/15 11:11:27;;;;;;;12.07;10.77;;;;;;;10.42;93.81;100288.03;4997432;28;20209;-74
2020/12/15 11:13:55;;;;;;;6.70;6.10;;;;;;;10.57;92.78;100284.41;5007307;28;20180;-75
2020/12/15 11:16:21;;;;;;;6.53;5.87;;;;;;;10.50;92.89;100286.63;4991992;28;20219;-73
2020/12/15 11:18:47;;;;;;;6.33;5.73;;;;;;;10.51;93.08;100288.22;5001123;28;20181;-73
2020/12/15 11:21:16;;;;;;;6.47;5.83;;;;;;;10.36;94.35;100288.31;4976247;28;20233;-73
2020/12/15 11:23:42;;;;;;;6.90;5.60;;;;;;;10.37;94.18;100294.59;5009729;28;20180;-74
2020/12/15 11:26:13;;;;;;;5.80;5.27;;;;;;;10.36;95.17;100287.53;5010565;28;20736;-74
2020/12/15 11:28:41;;;;;;;5.83;5.33;;;;;;;10.52;94.41;100295.31;4997779;28;20338;-74
2020/12/15 11:31:08;;;;;;;5.83;5.27;;;;;;;10.41;95.19;100297.25;4992874;28;20258;-75
2020/12/15 11:33:34;;;;;;;7.73;5.73;;;;;;;10.50;94.71;100295.56;4993780;28;20189;-75
2020/12/15 11:36:00;;;;;;;6.00;5.40;;;;;;;10.58;94.42;100305.84;4974616;28;20685;-76
2020/12/15 11:38:28;;;;;;;6.53;5.93;;;;;;;10.55;94.73;100298.28;4992753;28;20188;-74
2020/12/15 11:40:54;;;;;;;6.87;6.23;;;;;;;10.57;95.12;100304.22;5009476;28;20258;-74
2020/12/15 11:43:22;;;;;;;6.30;5.70;;;;;;;10.63;94.18;100305.81;5029232;28;20681;-73
2020/12/15 11:45:52;;;;;;;6.67;5.97;;;;;;;10.54;95.39;100309.41;5011869;28;20239;-73